createdAt,value
2022-08-07T00:07:05.147Z,1.57
2022-08-07T00:37:12.637Z,1.60
2022-08-07T01:07:18.216Z,1.80
2022-08-07T01:37:21.158Z,1.80
2022-08-07T02:07:35.965Z,1.57
2022-08-07T02:37:48.674Z,1.77
2022-08-07T03:08:07.545Z,2.00
2022-08-07T03:38:13.306Z,1.83
2022-08-07T04:08:18.700Z,1.70
2022-08-07T04:38:23.845Z,2.67
2022-08-07T05:08:58.936Z,2.10
2022-08-07T05:39:01.141Z,2.27
2022-08-07T06:09:14.512Z,2.43
2022-08-07T06:40:18.023Z,1.60
2022-08-07T07:09:42.468Z,2.50
2022-08-07T07:39:52.463Z,2.37
2022-08-07T08:10:05.253Z,1.90
2022-08-07T08:40:11.555Z,1.70
2022-08-07T09:10:19.931Z,2.10
2022-08-07T09:40:22.678Z,1.60
2022-08-07T10:10:28.196Z,1.40
2022-08-07T10:40:33.321Z,1.90
2022-08-07T11:10:37.334Z,1.73
2022-08-07T11:40:41.022Z,1.33
2022-08-07T12:11:08.109Z,1.40
2022-08-07T12:41:16.454Z,1.27
2022-08-07T13:11:20.391Z,1.40
2022-08-07T13:41:24.701Z,1.10
2022-08-07T14:11:53.173Z,1.37
2022-08-07T14:42:19.720Z,1.30
2022-08-07T15:12:25.621Z,1.30
2022-08-07T15:42:45.877Z,1.20
2022-08-07T16:12:58.207Z,1.53
2022-08-07T16:43:07.682Z,1.70
2022-08-07T17:13:10.969Z,1.47
2022-08-07T17:43:17.973Z,1.23
2022-08-07T18:13:23.089Z,1.40
2022-08-07T18:43:37.096Z,1.50
2022-08-07T19:13:46.088Z,1.40
2022-08-07T19:43:55.732Z,1.50
2022-08-07T20:14:02.670Z,1.65
2022-08-07T20:44:13.092Z,1.40
2022-08-07T21:14:32.828Z,1.60
2022-08-07T21:44:36.827Z,1.97
2022-08-07T22:14:44.071Z,2.10
2022-08-07T22:45:03.887Z,2.30
2022-08-07T23:16:04.268Z,2.13
2022-08-07T23:46:03.302Z,2.63
